sensor_id;sensor_type;location;lat;lon;timestamp;pressure;altitude;pressure_sealevel;temperature;humidity
47706;BME280;33471;52.104;1.318;2022-07-05T00:01:20;101890.11;;;17.84;36.15
47706;BME280;33471;52.104;1.318;2022-07-05T00:03:47;101891.09;;;17.72;36.07
47706;BME280;33471;52.104;1.318;2022-07-05T00:06:14;101887.93;;;16.63;38.13
47706;BME280;33471;52.104;1.318;2022-07-05T00:08:42;101888.64;;;17.34;37.52
47706;BME280;33471;52.104;1.318;2022-07-05T00:11:10;101891.50;;;16.56;38.94
47706;BME280;33471;52.104;1.318;2022-07-05T00:13:38;101898.03;;;15.93;39.92
47706;BME280;33471;52.104;1.318;2022-07-05T00:16:05;101896.79;;;16.62;39.06
47706;BME280;33471;52.104;1.318;2022-07-05T00:18:33;101898.65;;;16.99;38.56
47706;BME280;33471;52.104;1.318;2022-07-05T00:21:00;101899.32;;;17.35;37.66
47706;BME280;33471;52.104;1.318;2022-07-05T00:23:27;101898.41;;;17.61;37.58
47706;BME280;33471;52.104;1.318;2022-07-05T00:25:54;101897.79;;;16.10;39.54
47706;BME280;33471;52.104;1.318;2022-07-05T00:28:21;101904.49;;;15.46;40.93
47706;BME280;33471;52.104;1.318;2022-07-05T00:30:49;101902.43;;;15.85;39.97
47706;BME280;33471;52.104;1.318;2022-07-05T00:33:16;101901.97;;;16.00;39.86
47706;BME280;33471;52.104;1.318;2022-07-05T00:35:44;101908.18;;;15.50;41.58
47706;BME280;33471;52.104;1.318;2022-07-05T00:38:12;101906.95;;;16.24;40.09
47706;BME280;33471;52.104;1.318;2022-07-05T00:40:39;101905.95;;;15.36;41.07
47706;BME280;33471;52.104;1.318;2022-07-05T00:43:07;101902.41;;;15.30;40.29
47706;BME280;33471;52.104;1.318;2022-07-05T00:45:34;101905.74;;;15.09;40.90
47706;BME280;33471;52.104;1.318;2022-07-05T00:48:01;101902.61;;;15.84;39.63
47706;BME280;33471;52.104;1.318;2022-07-05T00:50:28;101907.91;;;15.33;39.98
47706;BME280;33471;52.104;1.318;2022-07-05T00:52:56;101903.84;;;15.58;39.28
47706;BME280;33471;52.104;1.318;2022-07-05T00:55:23;101902.00;;;16.62;38.13
47706;BME280;33471;52.104;1.318;2022-07-05T00:57:51;101900.89;;;16.15;38.96
47706;BME280;33471;52.104;1.318;2022-07-05T01:00:18;101901.39;;;15.06;39.97
47706;BME280;33471;52.104;1.318;2022-07-05T01:02:51;101898.54;;;14.30;41.82
47706;BME280;33471;52.104;1.318;2022-07-05T01:05:18;101899.81;;;15.60;39.95
47706;BME280;33471;52.104;1.318;2022-07-05T01:07:46;101901.19;;;14.55;41.19
47706;BME280;33471;52.104;1.318;2022-07-05T01:10:14;101899.75;;;15.79;39.28
47706;BME280;33471;52.104;1.318;2022-07-05T01:12:41;101902.27;;;14.98;40.92
47706;BME280;33471;52.104;1.318;2022-07-05T01:15:09;101904.04;;;14.98;40.35
47706;BME280;33471;52.104;1.318;2022-07-05T01:17:36;101905.46;;;15.50;39.48
47706;BME280;33471;52.104;1.318;2022-07-05T01:20:06;101903.45;;;15.39;39.75
47706;BME280;33471;52.104;1.318;2022-07-05T01:22:50;101902.03;;;13.99;42.39
47706;BME280;33471;52.104;1.318;2022-07-05T01:25:19;101897.65;;;15.13;40.64
47706;BME280;33471;52.104;1.318;2022-07-05T01:27:47;101897.03;;;14.37;41.62
47706;BME280;33471;52.104;1.318;2022-07-05T01:30:15;101896.53;;;14.77;41.45
47706;BME280;33471;52.104;1.318;2022-07-05T01:32:43;101896.33;;;14.92;40.48
47706;BME280;33471;52.104;1.318;2022-07-05T01:35:11;101894.70;;;15.90;38.92
47706;BME280;33471;52.104;1.318;2022-07-05T01:37:39;101895.43;;;15.64;39.30
47706;BME280;33471;52.104;1.318;2022-07-05T01:40:07;101894.21;;;14.90;40.67
47706;BME280;33471;52.104;1.318;2022-07-05T01:42:35;101896.96;;;14.40;41.38
47706;BME280;33471;52.104;1.318;2022-07-05T01:45:03;101897.81;;;14.64;41.42
47706;BME280;33471;52.104;1.318;2022-07-05T01:47:32;101904.42;;;13.79;43.19
47706;BME280;33471;52.104;1.318;2022-07-05T01:50:05;101900.73;;;15.09;41.03
47706;BME280;33471;52.104;1.318;2022-07-05T01:52:34;101905.45;;;13.86;43.20
47706;BME280;33471;52.104;1.318;2022-07-05T01:55:04;101898.90;;;14.39;41.66
47706;BME280;33471;52.104;1.318;2022-07-05T01:57:31;101901.20;;;14.26;41.67
47706;BME280;33471;52.104;1.318;2022-07-05T01:59:58;101903.17;;;14.21;42.01
47706;BME280;33471;52.104;1.318;2022-07-05T02:02:26;101900.96;;;14.77;41.61
47706;BME280;33471;52.104;1.318;2022-07-05T02:04:54;101894.65;;;14.64;41.86
47706;BME280;33471;52.104;1.318;2022-07-05T02:07:21;101891.35;;;14.56;41.49
47706;BME280;33471;52.104;1.318;2022-07-05T02:09:48;101890.10;;;14.36;41.97
47706;BME280;33471;52.104;1.318;2022-07-05T02:12:15;101885.44;;;14.11;42.30
47706;BME280;33471;52.104;1.318;2022-07-05T02:14:43;101884.22;;;14.41;42.16
47706;BME280;33471;52.104;1.318;2022-07-05T02:17:10;101886.62;;;14.04;42.62
47706;BME280;33471;52.104;1.318;2022-07-05T02:19:38;101890.14;;;13.60;43.64
47706;BME280;33471;52.104;1.318;2022-07-05T02:22:05;101887.17;;;14.02;42.69
47706;BME280;33471;52.104;1.318;2022-07-05T02:24:33;101886.49;;;13.73;42.91
47706;BME280;33471;52.104;1.318;2022-07-05T02:27:00;101881.39;;;14.70;41.49
47706;BME280;33471;52.104;1.318;2022-07-05T02:29:27;101889.43;;;13.51;43.35
47706;BME280;33471;52.104;1.318;2022-07-05T02:31:54;101885.84;;;14.04;42.56
47706;BME280;33471;52.104;1.318;2022-07-05T02:34:21;101887.15;;;14.31;42.40
47706;BME280;33471;52.104;1.318;2022-07-05T02:36:49;101887.00;;;13.82;42.69
47706;BME280;33471;52.104;1.318;2022-07-05T02:39:16;101890.73;;;13.92;42.78
47706;BME280;33471;52.104;1.318;2022-07-05T02:41:43;101891.25;;;12.91;44.37
47706;BME280;33471;52.104;1.318;2022-07-05T02:44:10;101892.86;;;13.63;43.37
47706;BME280;33471;52.104;1.318;2022-07-05T02:46:37;101896.60;;;13.65;43.22
47706;BME280;33471;52.104;1.318;2022-07-05T02:49:05;101891.34;;;14.65;41.57
47706;BME280;33471;52.104;1.318;2022-07-05T02:51:32;101888.68;;;14.50;41.81
47706;BME280;33471;52.104;1.318;2022-07-05T02:53:59;101894.06;;;13.53;43.44
47706;BME280;33471;52.104;1.318;2022-07-05T02:56:26;101888.72;;;14.05;42.61
47706;BME280;33471;52.104;1.318;2022-07-05T02:58:53;101893.48;;;13.35;43.86
47706;BME280;33471;52.104;1.318;2022-07-05T03:01:21;101891.64;;;14.09;42.66
47706;BME280;33471;52.104;1.318;2022-07-05T03:03:48;101893.44;;;14.01;42.72
47706;BME280;33471;52.104;1.318;2022-07-05T03:06:15;101889.79;;;14.09;42.63
47706;BME280;33471;52.104;1.318;2022-07-05T03:08:42;101884.37;;;14.40;41.55
47706;BME280;33471;52.104;1.318;2022-07-05T03:11:09;101885.55;;;14.49;41.83
47706;BME280;33471;52.104;1.318;2022-07-05T03:13:37;101895.40;;;13.90;42.85
47706;BME280;33471;52.104;1.318;2022-07-05T03:16:04;101891.16;;;14.64;41.34
47706;BME280;33471;52.104;1.318;2022-07-05T03:18:32;101893.17;;;14.24;42.13
47706;BME280;33471;52.104;1.318;2022-07-05T03:20:59;101897.70;;;14.10;42.34
47706;BME280;33471;52.104;1.318;2022-07-05T03:23:26;101900.95;;;14.35;42.96
47706;BME280;33471;52.104;1.318;2022-07-05T03:25:53;101905.65;;;12.94;45.29
47706;BME280;33471;52.104;1.318;2022-07-05T03:28:20;101909.24;;;12.96;45.24
47706;BME280;33471;52.104;1.318;2022-07-05T03:30:47;101909.92;;;12.92;45.55
47706;BME280;33471;52.104;1.318;2022-07-05T03:33:15;101917.99;;;13.69;43.71
47706;BME280;33471;52.104;1.318;2022-07-05T03:35:42;101915.56;;;14.04;42.65
47706;BME280;33471;52.104;1.318;2022-07-05T03:38:09;101923.60;;;13.28;44.97
47706;BME280;33471;52.104;1.318;2022-07-05T03:40:37;101922.81;;;14.09;43.47
47706;BME280;33471;52.104;1.318;2022-07-05T03:43:04;101924.03;;;13.10;45.02
47706;BME280;33471;52.104;1.318;2022-07-05T03:45:31;101922.61;;;13.31;44.77
47706;BME280;33471;52.104;1.318;2022-07-05T03:47:59;101919.38;;;12.66;46.52
47706;BME280;33471;52.104;1.318;2022-07-05T03:50:27;101917.73;;;12.98;45.84
47706;BME280;33471;52.104;1.318;2022-07-05T03:52:54;101920.98;;;12.04;47.78
47706;BME280;33471;52.104;1.318;2022-07-05T03:55:21;101924.52;;;12.22;47.68
47706;BME280;33471;52.104;1.318;2022-07-05T03:57:48;101924.43;;;12.62;46.86
47706;BME280;33471;52.104;1.318;2022-07-05T04:00:16;101923.34;;;12.53;47.20
47706;BME280;33471;52.104;1.318;2022-07-05T04:02:44;101927.94;;;13.38;45.39
47706;BME280;33471;52.104;1.318;2022-07-05T04:05:11;101930.67;;;13.51;45.41
47706;BME280;33471;52.104;1.318;2022-07-05T04:07:47;101928.66;;;13.10;45.50
47706;BME280;33471;52.104;1.318;2022-07-05T04:10:15;101933.13;;;13.65;44.66
47706;BME280;33471;52.104;1.318;2022-07-05T04:12:42;101931.97;;;13.19;44.35
47706;BME280;33471;52.104;1.318;2022-07-05T04:15:09;101933.07;;;13.92;43.59
47706;BME280;33471;52.104;1.318;2022-07-05T04:17:46;101934.78;;;12.77;45.57
47706;BME280;33471;52.104;1.318;2022-07-05T04:20:13;101938.83;;;12.95;45.87
47706;BME280;33471;52.104;1.318;2022-07-05T04:22:41;101941.98;;;12.63;45.98
47706;BME280;33471;52.104;1.318;2022-07-05T04:25:08;101940.63;;;13.03;46.59
47706;BME280;33471;52.104;1.318;2022-07-05T04:27:36;101938.20;;;12.29;47.61
47706;BME280;33471;52.104;1.318;2022-07-05T04:30:03;101942.44;;;12.78;46.74
47706;BME280;33471;52.104;1.318;2022-07-05T04:32:31;101946.31;;;12.91;46.51
47706;BME280;33471;52.104;1.318;2022-07-05T04:34:58;101949.03;;;13.06;45.91
47706;BME280;33471;52.104;1.318;2022-07-05T04:37:25;101952.58;;;13.65;45.32
47706;BME280;33471;52.104;1.318;2022-07-05T04:39:52;101952.81;;;11.95;48.40
47706;BME280;33471;52.104;1.318;2022-07-05T04:42:19;101954.91;;;12.08;48.34
47706;BME280;33471;52.104;1.318;2022-07-05T04:44:46;101955.42;;;12.53;47.90
47706;BME280;33471;52.104;1.318;2022-07-05T04:47:13;101958.38;;;13.37;45.58
47706;BME280;33471;52.104;1.318;2022-07-05T04:49:40;101957.46;;;12.22;47.92
47706;BME280;33471;52.104;1.318;2022-07-05T04:52:08;101958.76;;;13.27;46.57
47706;BME280;33471;52.104;1.318;2022-07-05T04:54:36;101964.28;;;12.08;48.55
47706;BME280;33471;52.104;1.318;2022-07-05T04:57:04;101962.67;;;12.25;47.99
47706;BME280;33471;52.104;1.318;2022-07-05T04:59:31;101964.83;;;12.71;47.91
47706;BME280;33471;52.104;1.318;2022-07-05T05:01:58;101966.79;;;12.64;48.05
47706;BME280;33471;52.104;1.318;2022-07-05T05:04:26;101969.65;;;12.48;48.02
47706;BME280;33471;52.104;1.318;2022-07-05T05:06:53;101975.75;;;13.50;45.92
47706;BME280;33471;52.104;1.318;2022-07-05T05:09:21;101975.13;;;12.43;47.83
47706;BME280;33471;52.104;1.318;2022-07-05T05:11:48;101980.05;;;12.55;47.68
47706;BME280;33471;52.104;1.318;2022-07-05T05:14:16;101981.12;;;12.33;48.63
47706;BME280;33471;52.104;1.318;2022-07-05T05:16:43;101981.87;;;13.11;47.10
47706;BME280;33471;52.104;1.318;2022-07-05T05:19:10;101983.32;;;13.18;46.53
47706;BME280;33471;52.104;1.318;2022-07-05T05:21:38;101984.50;;;12.90;46.81
47706;BME280;33471;52.104;1.318;2022-07-05T05:24:06;101985.46;;;13.00;46.57
47706;BME280;33471;52.104;1.318;2022-07-05T05:26:33;101989.37;;;14.40;44.30
47706;BME280;33471;52.104;1.318;2022-07-05T05:29:00;101988.63;;;13.61;45.51
47706;BME280;33471;52.104;1.318;2022-07-05T05:31:27;101987.18;;;13.92;45.13
47706;BME280;33471;52.104;1.318;2022-07-05T05:33:54;101982.67;;;14.61;44.03
47706;BME280;33471;52.104;1.318;2022-07-05T05:36:21;101983.09;;;14.94;43.70
47706;BME280;33471;52.104;1.318;2022-07-05T05:38:48;101989.31;;;13.11;46.34
47706;BME280;33471;52.104;1.318;2022-07-05T05:41:16;101983.74;;;13.24;46.98
47706;BME280;33471;52.104;1.318;2022-07-05T05:43:43;101984.77;;;12.43;48.68
47706;BME280;33471;52.104;1.318;2022-07-05T05:46:10;101985.07;;;11.92;49.77
47706;BME280;33471;52.104;1.318;2022-07-05T05:48:37;101986.88;;;12.79;48.54
47706;BME280;33471;52.104;1.318;2022-07-05T05:51:05;101992.96;;;14.27;45.34
47706;BME280;33471;52.104;1.318;2022-07-05T05:53:32;101991.72;;;13.29;47.47
47706;BME280;33471;52.104;1.318;2022-07-05T05:55:59;101993.50;;;13.20;47.36
47706;BME280;33471;52.104;1.318;2022-07-05T05:58:26;101993.14;;;12.70;48.10
47706;BME280;33471;52.104;1.318;2022-07-05T06:00:54;102000.08;;;12.34;50.65
47706;BME280;33471;52.104;1.318;2022-07-05T06:03:22;101999.12;;;13.04;49.05
47706;BME280;33471;52.104;1.318;2022-07-05T06:05:50;102005.48;;;13.11;48.63
47706;BME280;33471;52.104;1.318;2022-07-05T06:08:18;102007.36;;;12.59;51.34
47706;BME280;33471;52.104;1.318;2022-07-05T06:10:45;102006.21;;;13.30;49.80
47706;BME280;33471;52.104;1.318;2022-07-05T06:13:13;102006.00;;;13.35;49.38
47706;BME280;33471;52.104;1.318;2022-07-05T06:15:42;102012.73;;;12.20;51.01
47706;BME280;33471;52.104;1.318;2022-07-05T06:18:10;102013.57;;;12.64;51.51
47706;BME280;33471;52.104;1.318;2022-07-05T06:20:39;102014.06;;;12.66;52.02
47706;BME280;33471;52.104;1.318;2022-07-05T06:23:07;102018.37;;;12.73;52.03
47706;BME280;33471;52.104;1.318;2022-07-05T06:25:35;102020.82;;;12.84;51.56
47706;BME280;33471;52.104;1.318;2022-07-05T06:28:05;102020.96;;;13.87;48.83
47706;BME280;33471;52.104;1.318;2022-07-05T06:30:34;102018.02;;;13.69;49.33
47706;BME280;33471;52.104;1.318;2022-07-05T06:33:02;102016.35;;;14.91;46.96
47706;BME280;33471;52.104;1.318;2022-07-05T06:35:30;102019.61;;;14.39;47.40
47706;BME280;33471;52.104;1.318;2022-07-05T06:37:59;102020.49;;;14.92;46.26
47706;BME280;33471;52.104;1.318;2022-07-05T06:40:29;102029.37;;;14.72;46.50
47706;BME280;33471;52.104;1.318;2022-07-05T06:42:57;102033.82;;;14.46;47.94
47706;BME280;33471;52.104;1.318;2022-07-05T06:45:25;102039.75;;;14.51;47.08
47706;BME280;33471;52.104;1.318;2022-07-05T06:47:55;102040.78;;;14.80;46.15
47706;BME280;33471;52.104;1.318;2022-07-05T06:50:23;102037.53;;;16.14;43.63
47706;BME280;33471;52.104;1.318;2022-07-05T06:52:49;102035.40;;;15.84;44.31
47706;BME280;33471;52.104;1.318;2022-07-05T06:55:17;102035.76;;;15.58;44.53
47706;BME280;33471;52.104;1.318;2022-07-05T06:57:44;102042.03;;;14.64;46.32
47706;BME280;33471;52.104;1.318;2022-07-05T07:00:12;102043.63;;;15.27;45.73
47706;BME280;33471;52.104;1.318;2022-07-05T07:02:39;102043.65;;;15.28;44.91
47706;BME280;33471;52.104;1.318;2022-07-05T07:05:07;102038.22;;;17.00;41.85
47706;BME280;33471;52.104;1.318;2022-07-05T07:07:35;102040.11;;;17.20;40.88
47706;BME280;33471;52.104;1.318;2022-07-05T07:10:04;102043.95;;;15.89;43.40
47706;BME280;33471;52.104;1.318;2022-07-05T07:12:31;102040.12;;;15.39;44.57
47706;BME280;33471;52.104;1.318;2022-07-05T07:14:58;102041.14;;;15.61;44.22
47706;BME280;33471;52.104;1.318;2022-07-05T07:17:25;102047.20;;;14.74;45.89
47706;BME280;33471;52.104;1.318;2022-07-05T07:19:52;102055.29;;;14.41;46.41
47706;BME280;33471;52.104;1.318;2022-07-05T07:22:19;102054.72;;;14.63;47.06
47706;BME280;33471;52.104;1.318;2022-07-05T07:24:46;102044.01;;;15.45;45.07
47706;BME280;33471;52.104;1.318;2022-07-05T07:27:13;102043.48;;;16.25;43.60
47706;BME280;33471;52.104;1.318;2022-07-05T07:29:40;102042.45;;;15.46;44.14
47706;BME280;33471;52.104;1.318;2022-07-05T07:32:08;102049.39;;;16.04;43.19
47706;BME280;33471;52.104;1.318;2022-07-05T07:34:37;102053.45;;;15.02;46.29
47706;BME280;33471;52.104;1.318;2022-07-05T07:37:05;102055.74;;;14.62;46.45
47706;BME280;33471;52.104;1.318;2022-07-05T07:39:32;102062.81;;;14.37;47.52
47706;BME280;33471;52.104;1.318;2022-07-05T07:41:59;102057.60;;;15.20;45.30
47706;BME280;33471;52.104;1.318;2022-07-05T07:44:26;102060.84;;;15.64;44.82
47706;BME280;33471;52.104;1.318;2022-07-05T07:46:53;102064.78;;;15.01;46.07
47706;BME280;33471;52.104;1.318;2022-07-05T07:49:21;102062.30;;;15.45;45.40
47706;BME280;33471;52.104;1.318;2022-07-05T07:51:49;102059.48;;;15.81;43.68
47706;BME280;33471;52.104;1.318;2022-07-05T07:54:17;102056.98;;;15.73;43.14
47706;BME280;33471;52.104;1.318;2022-07-05T07:56:44;102058.14;;;15.88;43.43
47706;BME280;33471;52.104;1.318;2022-07-05T07:59:11;102058.28;;;16.45;43.07
47706;BME280;33471;52.104;1.318;2022-07-05T08:01:39;102058.99;;;16.07;43.43
47706;BME280;33471;52.104;1.318;2022-07-05T08:04:06;102057.66;;;16.32;42.46
47706;BME280;33471;52.104;1.318;2022-07-05T08:06:34;102055.00;;;16.06;42.97
47706;BME280;33471;52.104;1.318;2022-07-05T08:09:02;102058.40;;;16.20;42.84
47706;BME280;33471;52.104;1.318;2022-07-05T08:11:30;102060.61;;;16.30;42.59
47706;BME280;33471;52.104;1.318;2022-07-05T08:13:57;102062.86;;;16.48;40.93
47706;BME280;33471;52.104;1.318;2022-07-05T08:16:24;102068.56;;;15.35;43.93
47706;BME280;33471;52.104;1.318;2022-07-05T08:18:52;102052.14;;;17.18;41.17
47706;BME280;33471;52.104;1.318;2022-07-05T08:21:20;102058.30;;;16.00;42.11
47706;BME280;33471;52.104;1.318;2022-07-05T08:23:48;102055.04;;;15.90;41.76
47706;BME280;33471;52.104;1.318;2022-07-05T08:26:15;102054.33;;;16.89;40.84
47706;BME280;33471;52.104;1.318;2022-07-05T08:28:42;102053.90;;;16.64;40.55
47706;BME280;33471;52.104;1.318;2022-07-05T08:31:09;102049.06;;;17.06;39.94
47706;BME280;33471;52.104;1.318;2022-07-05T08:33:38;102051.18;;;16.70;40.71
47706;BME280;33471;52.104;1.318;2022-07-05T08:36:06;102051.91;;;17.86;39.07
47706;BME280;33471;52.104;1.318;2022-07-05T08:38:33;102054.26;;;17.84;39.15
47706;BME280;33471;52.104;1.318;2022-07-05T08:41:01;102061.39;;;16.91;39.32
47706;BME280;33471;52.104;1.318;2022-07-05T08:43:29;102062.07;;;16.58;40.73
47706;BME280;33471;52.104;1.318;2022-07-05T08:45:57;102063.63;;;16.49;40.63
47706;BME280;33471;52.104;1.318;2022-07-05T08:48:26;102064.48;;;16.89;40.49
47706;BME280;33471;52.104;1.318;2022-07-05T08:50:56;102058.67;;;16.78;40.57
47706;BME280;33471;52.104;1.318;2022-07-05T08:53:25;102050.04;;;17.20;39.09
47706;BME280;33471;52.104;1.318;2022-07-05T08:55:53;102050.25;;;16.78;39.07
47706;BME280;33471;52.104;1.318;2022-07-05T08:58:20;102058.43;;;16.92;38.57
47706;BME280;33471;52.104;1.318;2022-07-05T09:00:47;102062.09;;;15.24;40.90
47706;BME280;33471;52.104;1.318;2022-07-05T09:03:16;102061.36;;;16.21;39.84
47706;BME280;33471;52.104;1.318;2022-07-05T09:05:45;102055.87;;;17.23;37.76
47706;BME280;33471;52.104;1.318;2022-07-05T09:08:14;102056.67;;;16.82;38.40
47706;BME280;33471;52.104;1.318;2022-07-05T09:10:43;102053.23;;;17.49;37.01
47706;BME280;33471;52.104;1.318;2022-07-05T09:13:11;102063.60;;;17.44;37.12
47706;BME280;33471;52.104;1.318;2022-07-05T09:15:39;102071.17;;;16.21;38.71
47706;BME280;33471;52.104;1.318;2022-07-05T09:18:06;102069.14;;;16.79;38.35
47706;BME280;33471;52.104;1.318;2022-07-05T09:20:33;102071.12;;;17.81;36.43
47706;BME280;33471;52.104;1.318;2022-07-05T09:23:00;102069.85;;;17.14;36.39
47706;BME280;33471;52.104;1.318;2022-07-05T09:25:30;102077.73;;;15.79;39.14
47706;BME280;33471;52.104;1.318;2022-07-05T09:27:59;102080.40;;;17.03;36.78
47706;BME280;33471;52.104;1.318;2022-07-05T09:30:30;102074.50;;;17.80;35.70
47706;BME280;33471;52.104;1.318;2022-07-05T09:33:02;102075.76;;;17.88;34.53
47706;BME280;33471;52.104;1.318;2022-07-05T09:35:30;102073.97;;;17.10;35.63
47706;BME280;33471;52.104;1.318;2022-07-05T09:37:57;102068.54;;;18.32;34.01
47706;BME280;33471;52.104;1.318;2022-07-05T09:40:24;102069.25;;;17.72;35.22
47706;BME280;33471;52.104;1.318;2022-07-05T09:42:51;102079.31;;;17.11;36.91
47706;BME280;33471;52.104;1.318;2022-07-05T09:45:23;102077.59;;;16.40;37.92
47706;BME280;33471;52.104;1.318;2022-07-05T09:47:50;102081.33;;;17.00;37.61
47706;BME280;33471;52.104;1.318;2022-07-05T09:50:33;102081.48;;;17.36;37.63
47706;BME280;33471;52.104;1.318;2022-07-05T09:53:01;102068.62;;;17.51;36.12
47706;BME280;33471;52.104;1.318;2022-07-05T09:55:29;102071.20;;;18.94;34.87
47706;BME280;33471;52.104;1.318;2022-07-05T09:57:56;102076.63;;;18.43;35.45
47706;BME280;33471;52.104;1.318;2022-07-05T10:00:23;102076.01;;;17.77;36.90
47706;BME280;33471;52.104;1.318;2022-07-05T10:02:52;102073.73;;;17.17;37.80
47706;BME280;33471;52.104;1.318;2022-07-05T10:05:20;102075.18;;;17.39;36.91
47706;BME280;33471;52.104;1.318;2022-07-05T10:07:49;102077.77;;;16.76;38.00
47706;BME280;33471;52.104;1.318;2022-07-05T10:10:18;102071.58;;;17.70;37.08
47706;BME280;33471;52.104;1.318;2022-07-05T10:12:46;102067.39;;;18.84;35.15
47706;BME280;33471;52.104;1.318;2022-07-05T10:15:16;102071.28;;;18.19;35.12
47706;BME280;33471;52.104;1.318;2022-07-05T10:17:46;102078.95;;;16.98;35.45
47706;BME280;33471;52.104;1.318;2022-07-05T10:20:18;102071.62;;;17.29;35.67
47706;BME280;33471;52.104;1.318;2022-07-05T10:22:47;102073.58;;;18.55;33.51
47706;BME280;33471;52.104;1.318;2022-07-05T10:25:14;102073.39;;;18.07;34.54
47706;BME280;33471;52.104;1.318;2022-07-05T10:27:43;102086.67;;;17.01;36.03
47706;BME280;33471;52.104;1.318;2022-07-05T10:30:11;102087.97;;;18.20;34.78
47706;BME280;33471;52.104;1.318;2022-07-05T10:32:39;102098.74;;;17.29;35.00
47706;BME280;33471;52.104;1.318;2022-07-05T10:35:08;102088.35;;;17.87;34.74
47706;BME280;33471;52.104;1.318;2022-07-05T10:37:36;102090.39;;;19.00;33.51
47706;BME280;33471;52.104;1.318;2022-07-05T10:40:05;102088.78;;;17.92;33.76
47706;BME280;33471;52.104;1.318;2022-07-05T10:42:37;102089.12;;;18.53;33.29
47706;BME280;33471;52.104;1.318;2022-07-05T10:45:23;102101.69;;;17.92;34.10
47706;BME280;33471;52.104;1.318;2022-07-05T10:48:16;102096.06;;;17.35;35.70
47706;BME280;33471;52.104;1.318;2022-07-05T10:50:44;102102.24;;;16.94;35.71
47706;BME280;33471;52.104;1.318;2022-07-05T10:53:12;102102.69;;;17.60;35.34
47706;BME280;33471;52.104;1.318;2022-07-05T10:55:57;102101.03;;;18.43;33.86
47706;BME280;33471;52.104;1.318;2022-07-05T10:58:28;102114.13;;;18.59;33.40
47706;BME280;33471;52.104;1.318;2022-07-05T11:01:50;102106.14;;;18.42;32.54
47706;BME280;33471;52.104;1.318;2022-07-05T11:04:26;102102.19;;;19.44;31.72
47706;BME280;33471;52.104;1.318;2022-07-05T11:06:53;102097.57;;;18.74;32.19
47706;BME280;33471;52.104;1.318;2022-07-05T11:09:21;102099.97;;;18.37;32.43
47706;BME280;33471;52.104;1.318;2022-07-05T11:12:02;102103.08;;;19.02;32.30
47706;BME280;33471;52.104;1.318;2022-07-05T11:14:33;102100.02;;;18.87;31.56
47706;BME280;33471;52.104;1.318;2022-07-05T11:17:11;102103.04;;;18.63;32.59
47706;BME280;33471;52.104;1.318;2022-07-05T11:20:01;102102.50;;;17.69;33.01
47706;BME280;33471;52.104;1.318;2022-07-05T11:22:30;102104.93;;;19.10;31.79
47706;BME280;33471;52.104;1.318;2022-07-05T11:25:00;102097.92;;;18.86;31.60
47706;BME280;33471;52.104;1.318;2022-07-05T11:27:27;102096.18;;;18.92;31.88
47706;BME280;33471;52.104;1.318;2022-07-05T11:29:56;102100.05;;;19.57;29.91
47706;BME280;33471;52.104;1.318;2022-07-05T11:32:34;102094.44;;;19.87;29.19
47706;BME280;33471;52.104;1.318;2022-07-05T11:35:20;102086.31;;;21.31;27.44
47706;BME280;33471;52.104;1.318;2022-07-05T11:37:59;102077.21;;;22.08;26.25
47706;BME280;33471;52.104;1.318;2022-07-05T11:40:30;102082.94;;;20.15;27.66
47706;BME280;33471;52.104;1.318;2022-07-05T11:42:58;102093.48;;;20.01;28.34
47706;BME280;33471;52.104;1.318;2022-07-05T11:45:25;102092.84;;;19.69;29.47
47706;BME280;33471;52.104;1.318;2022-07-05T11:47:54;102095.11;;;19.50;29.25
47706;BME280;33471;52.104;1.318;2022-07-05T11:50:28;102092.18;;;20.60;28.18
47706;BME280;33471;52.104;1.318;2022-07-05T11:52:55;102098.04;;;19.78;30.08
47706;BME280;33471;52.104;1.318;2022-07-05T11:55:25;102103.69;;;19.30;30.69
47706;BME280;33471;52.104;1.318;2022-07-05T11:57:54;102104.17;;;20.13;30.95
47706;BME280;33471;52.104;1.318;2022-07-05T12:00:31;102106.86;;;19.41;31.09
47706;BME280;33471;52.104;1.318;2022-07-05T12:02:59;102114.16;;;19.38;30.89
47706;BME280;33471;52.104;1.318;2022-07-05T12:05:30;102107.17;;;19.10;31.46
47706;BME280;33471;52.104;1.318;2022-07-05T12:07:58;102100.40;;;19.20;31.28
47706;BME280;33471;52.104;1.318;2022-07-05T12:10:26;102090.64;;;19.87;30.07
47706;BME280;33471;52.104;1.318;2022-07-05T12:12:54;102087.11;;;19.92;29.55
47706;BME280;33471;52.104;1.318;2022-07-05T12:15:21;102094.44;;;19.67;30.01
47706;BME280;33471;52.104;1.318;2022-07-05T12:17:50;102094.97;;;19.22;30.45
47706;BME280;33471;52.104;1.318;2022-07-05T12:20:21;102092.99;;;19.21;30.75
47706;BME280;33471;52.104;1.318;2022-07-05T12:22:49;102082.96;;;20.92;28.37
47706;BME280;33471;52.104;1.318;2022-07-05T12:25:18;102091.05;;;20.32;29.11
47706;BME280;33471;52.104;1.318;2022-07-05T12:27:47;102085.75;;;19.59;29.53
47706;BME280;33471;52.104;1.318;2022-07-05T12:30:15;102085.97;;;20.70;28.64
47706;BME280;33471;52.104;1.318;2022-07-05T12:33:00;102092.33;;;20.35;29.15
47706;BME280;33471;52.104;1.318;2022-07-05T12:35:32;102094.11;;;20.00;29.53
47706;BME280;33471;52.104;1.318;2022-07-05T12:38:09;102091.65;;;20.89;28.86
47706;BME280;33471;52.104;1.318;2022-07-05T12:40:38;102096.49;;;18.95;30.36
47706;BME280;33471;52.104;1.318;2022-07-05T12:43:08;102097.92;;;18.97;30.72
47706;BME280;33471;52.104;1.318;2022-07-05T12:45:37;102096.21;;;19.83;29.54
47706;BME280;33471;52.104;1.318;2022-07-05T12:48:07;102098.80;;;18.75;30.84
47706;BME280;33471;52.104;1.318;2022-07-05T12:50:51;102099.96;;;19.73;28.78
47706;BME280;33471;52.104;1.318;2022-07-05T12:53:19;102101.74;;;19.93;29.34
47706;BME280;33471;52.104;1.318;2022-07-05T12:55:47;102110.34;;;19.46;29.59
47706;BME280;33471;52.104;1.318;2022-07-05T12:58:14;102113.84;;;18.43;31.27